createdAt,value
2022-09-27T00:01:09.984Z,71.00
2022-09-27T00:03:37.848Z,71.00
2022-09-27T00:06:31.555Z,71.00
2022-09-27T00:08:59.897Z,71.30
2022-09-27T00:11:34.437Z,71.10
2022-09-27T00:14:02.229Z,71.30
2022-09-27T00:16:35.792Z,71.20
2022-09-27T00:19:13.803Z,71.50
2022-09-27T00:21:41.952Z,71.30
2022-09-27T00:24:13.940Z,71.30
2022-09-27T00:26:41.122Z,71.70
2022-09-27T00:29:08.901Z,71.40
2022-09-27T00:31:36.678Z,72.30
2022-09-27T00:34:05.428Z,71.40
2022-09-27T00:36:35.310Z,71.30
2022-09-27T00:39:02.257Z,71.40
2022-09-27T00:41:33.551Z,71.40
2022-09-27T00:44:05.398Z,71.50
2022-09-27T00:46:41.409Z,71.60
2022-09-27T00:49:33.668Z,71.70
2022-09-27T00:52:07.879Z,71.70
2022-09-27T00:54:39.293Z,71.50
2022-09-27T00:57:06.666Z,71.50
2022-09-27T00:59:45.545Z,71.50
2022-09-27T01:02:13.945Z,72.00
2022-09-27T01:04:45.532Z,71.60
2022-09-27T01:07:12.467Z,71.80
2022-09-27T01:09:40.249Z,71.70
2022-09-27T01:12:36.080Z,71.70
2022-09-27T01:15:36.940Z,71.70
2022-09-27T01:18:41.062Z,72.20
2022-09-27T01:21:22.998Z,72.10
2022-09-27T01:24:37.241Z,72.10
2022-09-27T01:28:04.791Z,72.10
2022-09-27T01:30:43.273Z,72.20
2022-09-27T01:33:36.240Z,71.80
2022-09-27T01:36:39.737Z,72.40
2022-09-27T01:39:25.256Z,72.30
2022-09-27T01:43:09.698Z,72.30
2022-09-27T01:45:54.719Z,72.30
2022-09-27T01:48:48.214Z,72.30
2022-09-27T01:51:34.050Z,72.50
2022-09-27T01:54:04.360Z,72.70
2022-09-27T01:56:54.686Z,72.50
2022-09-27T01:59:34.166Z,72.40
2022-09-27T02:02:24.666Z,72.50
2022-09-27T02:05:14.251Z,72.30
2022-09-27T02:07:56.634Z,72.50
2022-09-27T02:10:31.580Z,72.90
2022-09-27T02:13:17.808Z,72.70
2022-09-27T02:16:20.785Z,72.80
2022-09-27T02:19:06.973Z,73.10
2022-09-27T02:22:20.747Z,72.40
2022-09-27T02:25:02.754Z,73.00
2022-09-27T02:27:40.695Z,72.90
2022-09-27T02:30:15.119Z,72.70
2022-09-27T02:32:45.266Z,72.60
2022-09-27T02:35:17.749Z,73.40
2022-09-27T02:37:45.553Z,72.50
2022-09-27T02:40:14.034Z,72.80
2022-09-27T02:42:44.377Z,72.60
2022-09-27T02:45:15.725Z,72.90
2022-09-27T02:48:08.698Z,73.00
2022-09-27T02:50:59.596Z,72.60
2022-09-27T02:53:59.475Z,72.80
2022-09-27T02:57:47.851Z,72.60
2022-09-27T03:00:56.875Z,72.60
2022-09-27T03:04:17.975Z,72.70
2022-09-27T03:06:47.392Z,72.60
2022-09-27T03:09:24.106Z,72.40
2022-09-27T03:11:51.549Z,72.50
2022-09-27T03:14:18.557Z,73.30
2022-09-27T03:16:56.805Z,72.50
2022-09-27T03:19:42.561Z,72.50
2022-09-27T03:22:28.051Z,72.40
2022-09-27T03:24:55.191Z,72.50
2022-09-27T03:27:22.280Z,72.50
2022-09-27T03:29:49.340Z,73.50
2022-09-27T03:32:16.604Z,72.80
2022-09-27T03:35:00.385Z,72.70
2022-09-27T03:37:29.554Z,72.60
2022-09-27T03:39:56.615Z,72.60
2022-09-27T03:42:24.073Z,72.60
2022-09-27T03:44:52.472Z,72.80
2022-09-27T03:47:20.057Z,72.80
2022-09-27T03:49:48.554Z,72.80
2022-09-27T03:52:18.445Z,72.70
2022-09-27T03:54:46.172Z,72.80
2022-09-27T03:57:13.671Z,72.80
2022-09-27T03:59:41.240Z,72.70
2022-09-27T04:02:29.408Z,72.80
2022-09-27T04:05:16.142Z,72.80
2022-09-27T04:07:50.194Z,72.90
2022-09-27T04:10:18.878Z,73.30
2022-09-27T04:12:46.296Z,73.10
2022-09-27T04:15:13.901Z,73.00
2022-09-27T04:17:50.605Z,73.10
2022-09-27T04:20:52.809Z,73.10
2022-09-27T04:23:20.756Z,73.10
2022-09-27T04:25:52.035Z,74.00
2022-09-27T04:28:30.169Z,73.10
2022-09-27T04:30:57.353Z,73.20
2022-09-27T04:33:47.136Z,73.30
2022-09-27T04:36:27.024Z,73.40
2022-09-27T04:39:13.599Z,73.60
2022-09-27T04:41:42.585Z,74.30
2022-09-27T04:44:11.454Z,73.40
2022-09-27T04:46:41.186Z,73.40
2022-09-27T04:49:08.532Z,73.40
2022-09-27T04:51:36.978Z,73.50
2022-09-27T04:54:04.953Z,73.50
2022-09-27T04:56:48.767Z,73.50
2022-09-27T04:59:16.931Z,73.50
2022-09-27T05:01:45.525Z,73.50
2022-09-27T05:04:42.517Z,73.60
2022-09-27T05:07:11.171Z,73.50
2022-09-27T05:09:44.581Z,73.50
2022-09-27T05:12:12.533Z,73.60
2022-09-27T05:14:46.467Z,73.50
2022-09-27T05:17:16.416Z,73.60
2022-09-27T05:20:19.637Z,73.60
2022-09-27T05:22:55.825Z,73.50
2022-09-27T05:25:23.248Z,73.50
2022-09-27T05:27:51.607Z,73.40
2022-09-27T05:30:19.909Z,73.50
2022-09-27T05:33:01.762Z,73.60
2022-09-27T05:35:28.901Z,73.50
2022-09-27T05:38:00.233Z,73.50
2022-09-27T05:40:41.973Z,74.40
2022-09-27T05:43:11.483Z,73.40
2022-09-27T05:45:38.978Z,74.20
2022-09-27T05:48:07.314Z,73.20
2022-09-27T05:50:42.771Z,73.90
2022-09-27T05:53:10.688Z,73.20
2022-09-27T05:55:38.009Z,73.20
2022-09-27T05:58:09.020Z,73.20
2022-09-27T06:00:44.702Z,73.30
2022-09-27T06:03:30.690Z,73.20
2022-09-27T06:06:16.825Z,73.20
2022-09-27T06:08:50.936Z,73.30
2022-09-27T06:11:20.927Z,73.40
2022-09-27T06:13:50.411Z,73.40
2022-09-27T06:16:18.072Z,73.50
2022-09-27T06:18:46.569Z,73.50
2022-09-27T06:21:14.932Z,73.60
2022-09-27T06:23:54.065Z,73.70
2022-09-27T06:26:28.717Z,73.80
2022-09-27T06:29:15.342Z,73.60
2022-09-27T06:31:51.175Z,73.60
2022-09-27T06:34:28.553Z,73.80
2022-09-27T06:36:57.243Z,73.90
2022-09-27T06:39:25.468Z,74.00
2022-09-27T06:42:06.017Z,74.00
2022-09-27T06:44:51.897Z,74.00
2022-09-27T06:47:39.763Z,73.80
2022-09-27T06:50:34.597Z,73.80
2022-09-27T06:53:02.956Z,73.60
2022-09-27T06:55:30.326Z,73.60
2022-09-27T06:58:18.884Z,73.50
2022-09-27T07:01:05.916Z,73.60
2022-09-27T07:04:02.369Z,74.50
2022-09-27T07:06:49.718Z,74.30
2022-09-27T07:09:21.580Z,73.50
2022-09-27T07:11:48.599Z,73.40
2022-09-27T07:14:17.602Z,73.30
2022-09-27T07:16:46.047Z,73.30
2022-09-27T07:19:14.427Z,73.40
2022-09-27T07:21:42.088Z,73.50
2022-09-27T07:24:09.296Z,73.70
2022-09-27T07:26:36.431Z,73.70
2022-09-27T07:29:06.481Z,73.60
2022-09-27T07:31:34.301Z,73.80
2022-09-27T07:34:01.534Z,73.60
2022-09-27T07:36:31.151Z,73.70
2022-09-27T07:39:02.050Z,73.70
2022-09-27T07:41:32.352Z,73.60
2022-09-27T07:43:59.797Z,73.80
2022-09-27T07:46:27.801Z,73.80
2022-09-27T07:48:57.626Z,73.80
2022-09-27T07:51:43.471Z,73.90
2022-09-27T07:54:49.419Z,73.90
2022-09-27T07:57:25.912Z,73.80
2022-09-27T07:59:55.888Z,73.80
2022-09-27T08:02:24.628Z,73.80
2022-09-27T08:04:53.434Z,73.50
2022-09-27T08:07:22.666Z,73.50
2022-09-27T08:09:53.414Z,73.60
2022-09-27T08:12:22.633Z,73.60
2022-09-27T08:14:50.852Z,73.80
2022-09-27T08:17:19.642Z,73.70
2022-09-27T08:20:09.053Z,73.80
2022-09-27T08:23:05.615Z,73.70
2022-09-27T08:25:38.227Z,73.90
2022-09-27T08:28:27.743Z,73.80
2022-09-27T08:31:04.423Z,73.90
2022-09-27T08:33:34.186Z,73.70
2022-09-27T08:36:04.378Z,73.70
2022-09-27T08:38:31.810Z,73.60
2022-09-27T08:41:43.713Z,73.60
2022-09-27T08:44:35.803Z,73.40
2022-09-27T08:47:25.074Z,73.00
2022-09-27T08:50:09.629Z,73.00
2022-09-27T08:52:45.639Z,72.80
2022-09-27T08:55:31.189Z,73.40
2022-09-27T08:57:59.907Z,72.80
2022-09-27T09:00:29.825Z,72.80
2022-09-27T09:03:01.565Z,72.90
2022-09-27T09:05:35.823Z,72.60
2022-09-27T09:08:27.504Z,72.60
2022-09-27T09:11:28.969Z,72.70
2022-09-27T09:15:04.929Z,72.70
2022-09-27T09:18:16.776Z,72.50
2022-09-27T09:21:32.235Z,72.60
2022-09-27T09:24:24.641Z,72.50
2022-09-27T09:27:30.534Z,72.30
2022-09-27T09:30:30.364Z,71.80
2022-09-27T09:33:28.810Z,72.00
2022-09-27T09:36:03.042Z,71.90
2022-09-27T09:38:49.157Z,70.90
2022-09-27T09:41:32.519Z,71.20
2022-09-27T09:44:05.544Z,71.10
2022-09-27T09:46:45.600Z,71.00
2022-09-27T09:49:23.018Z,71.00
2022-09-27T09:51:57.083Z,70.60
2022-09-27T09:54:39.450Z,69.60
2022-09-27T09:57:53.022Z,69.70
2022-09-27T10:00:24.712Z,69.60
2022-09-27T10:03:00.302Z,69.80
2022-09-27T10:05:29.325Z,69.00
2022-09-27T10:08:05.128Z,69.20
2022-09-27T10:10:33.688Z,69.50
2022-09-27T10:13:10.958Z,69.50
2022-09-27T10:15:38.896Z,68.60
2022-09-27T10:18:12.945Z,68.90
2022-09-27T10:20:47.558Z,69.20
2022-09-27T10:23:19.332Z,68.90
2022-09-27T10:26:05.963Z,68.90
2022-09-27T10:28:46.077Z,69.00
2022-09-27T10:31:19.102Z,69.20
2022-09-27T10:34:25.610Z,68.90
2022-09-27T10:37:19.203Z,68.00
2022-09-27T10:40:01.750Z,68.40
2022-09-27T10:42:38.943Z,68.30
2022-09-27T10:45:33.353Z,68.30
2022-09-27T10:48:22.239Z,67.10
2022-09-27T10:51:01.215Z,67.60
2022-09-27T10:53:46.878Z,67.50
2022-09-27T10:56:34.503Z,67.30
2022-09-27T10:59:05.223Z,66.90
2022-09-27T11:02:00.044Z,67.60
2022-09-27T11:05:31.788Z,67.70
2022-09-27T11:08:03.185Z,67.50
2022-09-27T11:10:40.671Z,67.40
2022-09-27T11:13:15.226Z,67.20
2022-09-27T11:16:17.247Z,67.20
2022-09-27T11:19:19.966Z,67.20
2022-09-27T11:22:35.687Z,67.50
2022-09-27T11:25:32.383Z,68.50
2022-09-27T11:28:16.832Z,68.50
2022-09-27T11:31:16.375Z,67.50
2022-09-27T11:34:11.397Z,67.70
2022-09-27T11:36:55.726Z,67.00
2022-09-27T11:39:32.752Z,67.30
2022-09-27T11:42:58.297Z,67.80
2022-09-27T11:46:15.449Z,68.00
2022-09-27T11:49:12.458Z,67.80
2022-09-27T11:52:11.179Z,67.50
2022-09-27T11:55:01.539Z,67.20
2022-09-27T11:58:05.692Z,67.40
2022-09-27T12:01:01.077Z,66.70
2022-09-27T12:04:01.468Z,67.00
2022-09-27T12:06:40.455Z,67.10
2022-09-27T12:09:16.745Z,66.50
2022-09-27T12:11:54.671Z,66.80
2022-09-27T12:14:46.209Z,66.70
2022-09-27T12:17:27.635Z,65.70
2022-09-27T12:20:04.331Z,66.20
2022-09-27T12:23:18.111Z,66.40
2022-09-27T12:26:44.174Z,66.50
2022-09-27T12:29:26.612Z,66.50
2022-09-27T12:32:22.452Z,66.00
2022-09-27T12:35:17.039Z,66.00
2022-09-27T12:38:14.402Z,65.70
2022-09-27T12:40:52.409Z,66.10
2022-09-27T12:43:31.842Z,66.00
2022-09-27T12:46:56.834Z,66.30
2022-09-27T12:49:43.853Z,67.00
2022-09-27T12:52:23.343Z,65.20
2022-09-27T12:55:20.573Z,65.30
2022-09-27T12:58:31.719Z,65.10
2022-09-27T13:01:14.778Z,64.50
2022-09-27T13:04:23.235Z,64.30
2022-09-27T13:07:44.745Z,64.80
2022-09-27T13:11:01.022Z,64.90
2022-09-27T13:13:36.685Z,64.30
2022-09-27T13:16:06.933Z,62.60
2022-09-27T13:18:47.673Z,63.20
2022-09-27T13:21:49.656Z,63.80
2022-09-27T13:24:41.840Z,63.80
2022-09-27T13:27:23.438Z,64.30
2022-09-27T13:29:51.638Z,64.20
2022-09-27T13:32:26.244Z,64.00
2022-09-27T13:35:25.494Z,64.40
2022-09-27T13:38:22.820Z,62.30
2022-09-27T13:40:51.379Z,63.30
2022-09-27T13:43:57.158Z,63.60
2022-09-27T13:46:37.758Z,63.90
2022-09-27T13:49:22.210Z,64.60
2022-09-27T13:52:31.185Z,65.40
2022-09-27T13:55:47.726Z,65.80
2022-09-27T13:58:52.506Z,65.80
2022-09-27T14:01:48.452Z,66.10
2022-09-27T14:04:42.424Z,66.10
2022-09-27T14:07:18.092Z,66.90
2022-09-27T14:09:49.858Z,66.80
2022-09-27T14:12:38.945Z,66.90
2022-09-27T14:15:18.269Z,66.80
2022-09-27T14:17:46.258Z,66.90
2022-09-27T14:20:43.580Z,67.00
2022-09-27T14:23:26.396Z,66.70
2022-09-27T14:25:57.044Z,66.60
2022-09-27T14:28:32.001Z,66.90
2022-09-27T14:31:23.052Z,66.70
2022-09-27T14:34:11.479Z,66.70
2022-09-27T14:37:03.693Z,66.70
2022-09-27T14:39:38.357Z,66.40
2022-09-27T14:42:37.858Z,66.30
2022-09-27T14:45:36.576Z,66.80
2022-09-27T14:48:20.130Z,66.30
2022-09-27T14:51:14.587Z,66.40
2022-09-27T14:53:47.821Z,66.40
2022-09-27T14:56:22.772Z,65.90
2022-09-27T14:59:02.841Z,64.00
2022-09-27T15:01:30.707Z,64.70
2022-09-27T15:04:07.434Z,64.30
2022-09-27T15:06:37.922Z,63.40
2022-09-27T15:09:07.128Z,64.30
2022-09-27T15:11:35.225Z,64.50
2022-09-27T15:14:04.981Z,64.00
2022-09-27T15:16:32.415Z,63.10
2022-09-27T15:19:14.071Z,61.60
2022-09-27T15:21:41.620Z,61.20
2022-09-27T15:24:40.778Z,60.30
2022-09-27T15:27:26.238Z,61.90
2022-09-27T15:29:58.570Z,61.10
2022-09-27T15:32:28.609Z,61.10
2022-09-27T15:34:57.198Z,61.80
2022-09-27T15:37:38.312Z,62.10
2022-09-27T15:40:20.975Z,61.90
2022-09-27T15:43:00.217Z,61.50
2022-09-27T15:45:35.821Z,60.30
2022-09-27T15:48:15.969Z,61.30
2022-09-27T15:50:43.710Z,61.10
2022-09-27T15:53:11.529Z,60.80
2022-09-27T15:55:47.324Z,61.10
2022-09-27T15:58:16.836Z,61.10
2022-09-27T16:01:02.991Z,61.40
2022-09-27T16:03:30.775Z,61.50
2022-09-27T16:06:03.134Z,61.40
2022-09-27T16:08:31.269Z,61.70
2022-09-27T16:11:00.567Z,62.10
2022-09-27T16:13:32.715Z,62.30
2022-09-27T16:16:02.261Z,62.50
2022-09-27T16:18:31.009Z,62.90
2022-09-27T16:20:59.900Z,63.40
2022-09-27T16:23:27.191Z,63.60
2022-09-27T16:25:54.643Z,63.60
2022-09-27T16:28:21.707Z,63.80
2022-09-27T16:30:49.245Z,63.90
2022-09-27T16:33:16.642Z,64.10
2022-09-27T16:35:43.955Z,64.20
2022-09-27T16:38:11.897Z,64.40
2022-09-27T16:40:39.260Z,64.50
2022-09-27T16:43:07.636Z,64.70
2022-09-27T16:45:36.799Z,64.90
2022-09-27T16:48:04.738Z,65.00
2022-09-27T16:50:50.581Z,65.20
2022-09-27T16:53:18.239Z,65.20
2022-09-27T16:55:45.616Z,66.20
2022-09-27T16:58:12.626Z,65.70
2022-09-27T17:00:41.979Z,65.70
2022-09-27T17:03:09.035Z,65.90
2022-09-27T17:05:36.100Z,65.90
2022-09-27T17:08:05.443Z,66.40
2022-09-27T17:10:32.419Z,66.10
2022-09-27T17:13:01.574Z,65.90
2022-09-27T17:15:29.493Z,66.00
2022-09-27T17:17:56.530Z,65.90
2022-09-27T17:20:23.485Z,66.20
2022-09-27T17:22:50.378Z,66.10
2022-09-27T17:25:17.525Z,67.00
2022-09-27T17:27:44.519Z,66.10
2022-09-27T17:30:12.182Z,66.30
2022-09-27T17:32:40.299Z,66.40
2022-09-27T17:35:09.807Z,66.50
2022-09-27T17:37:37.122Z,66.80
2022-09-27T17:40:05.981Z,66.90
2022-09-27T17:42:34.173Z,67.20
2022-09-27T17:45:01.422Z,67.00
2022-09-27T17:47:47.264Z,66.90
2022-09-27T17:50:27.204Z,67.70
2022-09-27T17:52:56.856Z,66.80
2022-09-27T17:55:24.809Z,66.80
2022-09-27T17:57:52.309Z,66.80
2022-09-27T18:00:20.584Z,66.80
2022-09-27T18:02:48.236Z,66.70
2022-09-27T18:05:15.584Z,66.90
2022-09-27T18:07:42.522Z,67.10
2022-09-27T18:10:09.872Z,67.20
2022-09-27T18:12:37.015Z,67.10
2022-09-27T18:15:04.770Z,67.20
2022-09-27T18:17:32.073Z,67.40
2022-09-27T18:20:02.129Z,67.40
2022-09-27T18:22:31.242Z,68.50
2022-09-27T18:24:58.378Z,67.60
2022-09-27T18:27:25.325Z,67.60
2022-09-27T18:29:52.697Z,67.90
2022-09-27T18:32:19.643Z,68.10
2022-09-27T18:34:46.612Z,68.10
2022-09-27T18:37:13.911Z,68.30
2022-09-27T18:39:40.901Z,68.10
2022-09-27T18:42:09.114Z,68.40
2022-09-27T18:44:36.736Z,68.30
2022-09-27T18:47:04.169Z,68.40
2022-09-27T18:49:34.203Z,68.30
2022-09-27T18:52:02.594Z,68.20
2022-09-27T18:54:29.622Z,68.20
2022-09-27T18:56:56.844Z,68.30
2022-09-27T18:59:24.254Z,68.30
2022-09-27T19:01:51.704Z,68.40
2022-09-27T19:04:26.999Z,68.30
2022-09-27T19:06:57.433Z,68.70
2022-09-27T19:09:26.753Z,68.70
2022-09-27T19:11:54.077Z,68.60
2022-09-27T19:14:22.779Z,68.50
2022-09-27T19:16:50.807Z,68.60
2022-09-27T19:19:19.805Z,68.50
2022-09-27T19:21:48.961Z,68.40
2022-09-27T19:24:17.821Z,68.50
2022-09-27T19:26:45.095Z,68.50
2022-09-27T19:29:13.641Z,68.50
2022-09-27T19:31:41.996Z,69.50
2022-09-27T19:34:09.238Z,70.00
2022-09-27T19:36:36.337Z,71.00
2022-09-27T19:39:04.416Z,70.20
2022-09-27T19:41:31.555Z,70.10
2022-09-27T19:43:58.720Z,70.20
2022-09-27T19:46:26.727Z,70.30
2022-09-27T19:48:56.064Z,70.50
2022-09-27T19:51:26.405Z,70.50
2022-09-27T19:53:54.599Z,70.70
2022-09-27T19:56:23.228Z,70.70
2022-09-27T19:58:50.923Z,70.60
2022-09-27T20:01:21.280Z,70.50
2022-09-27T20:03:51.265Z,70.70
2022-09-27T20:06:20.715Z,70.60
2022-09-27T20:08:48.021Z,70.60
2022-09-27T20:11:21.493Z,71.40
2022-09-27T20:13:50.990Z,70.90
2022-09-27T20:16:21.975Z,71.00
2022-09-27T20:18:54.753Z,71.20
2022-09-27T20:21:24.998Z,71.20
2022-09-27T20:23:54.961Z,71.40
2022-09-27T20:26:24.470Z,71.70
2022-09-27T20:29:00.200Z,71.70
2022-09-27T20:31:30.687Z,73.10
2022-09-27T20:33:57.714Z,71.90
2022-09-27T20:36:37.417Z,71.70
2022-09-27T20:39:10.792Z,72.20
2022-09-27T20:41:44.474Z,71.50
2022-09-27T20:44:18.318Z,71.60
2022-09-27T20:46:47.172Z,71.90
2022-09-27T20:49:19.453Z,71.50
2022-09-27T20:51:51.302Z,71.70
2022-09-27T20:54:19.001Z,71.90
2022-09-27T20:56:48.167Z,72.80
2022-09-27T20:59:18.314Z,72.80
2022-09-27T21:01:47.611Z,71.80
2022-09-27T21:04:17.107Z,72.70
2022-09-27T21:06:45.185Z,72.60
2022-09-27T21:09:18.738Z,71.80
2022-09-27T21:11:51.801Z,71.80
2022-09-27T21:14:19.162Z,72.10
2022-09-27T21:16:46.210Z,71.60
2022-09-27T21:19:13.880Z,71.60
2022-09-27T21:21:40.921Z,71.50
2022-09-27T21:24:07.941Z,71.70
2022-09-27T21:26:34.941Z,71.60
2022-09-27T21:29:07.620Z,72.60
2022-09-27T21:31:35.907Z,71.80
2022-09-27T21:34:05.428Z,71.60
2022-09-27T21:36:38.405Z,71.70
2022-09-27T21:39:08.354Z,71.90
2022-09-27T21:41:36.101Z,72.50
2022-09-27T21:44:05.594Z,71.90
2022-09-27T21:46:32.697Z,72.40
2022-09-27T21:49:02.173Z,72.40
2022-09-27T21:51:33.969Z,72.40
2022-09-27T21:54:03.318Z,73.50
2022-09-27T21:56:33.653Z,73.40
2022-09-27T21:59:00.892Z,72.50
2022-09-27T22:01:32.088Z,72.40
2022-09-27T22:04:00.334Z,73.40
2022-09-27T22:06:34.248Z,72.40
2022-09-27T22:09:03.132Z,72.70
2022-09-27T22:11:34.660Z,72.30
2022-09-27T22:14:01.856Z,72.60
2022-09-27T22:16:32.470Z,72.40
2022-09-27T22:19:00.173Z,72.60
2022-09-27T22:21:32.401Z,72.60
2022-09-27T22:24:15.307Z,72.80
2022-09-27T22:26:47.241Z,73.00
2022-09-27T22:29:14.511Z,72.60
2022-09-27T22:31:41.755Z,72.60
2022-09-27T22:34:27.873Z,72.60
2022-09-27T22:36:57.548Z,73.00
2022-09-27T22:39:24.723Z,72.80
2022-09-27T22:41:51.732Z,72.80
2022-09-27T22:44:18.763Z,72.90
2022-09-27T22:46:46.162Z,73.20
2022-09-27T22:49:13.890Z,74.10
2022-09-27T22:51:41.062Z,73.40
2022-09-27T22:54:08.256Z,73.40
2022-09-27T22:56:35.282Z,73.40
2022-09-27T22:59:02.401Z,73.40
2022-09-27T23:01:29.510Z,73.30
2022-09-27T23:03:57.184Z,72.00
2022-09-27T23:06:24.404Z,71.90
2022-09-27T23:08:51.882Z,72.00
2022-09-27T23:11:22.262Z,72.10
2022-09-27T23:13:51.283Z,72.10
2022-09-27T23:16:26.022Z,73.00
2022-09-27T23:18:55.009Z,72.20
2022-09-27T23:21:24.589Z,72.00
2022-09-27T23:23:55.063Z,71.90
2022-09-27T23:26:25.977Z,71.80
2022-09-27T23:28:55.472Z,71.70
2022-09-27T23:31:24.027Z,71.50
2022-09-27T23:33:52.755Z,71.40
2022-09-27T23:36:26.989Z,71.40
2022-09-27T23:38:57.902Z,71.60
2022-09-27T23:41:26.053Z,71.50
2022-09-27T23:43:53.947Z,71.40
2022-09-27T23:46:21.238Z,72.50
2022-09-27T23:48:48.865Z,71.70
2022-09-27T23:51:15.918Z,71.80
2022-09-27T23:53:44.433Z,71.80
2022-09-27T23:56:15.413Z,71.70
2022-09-27T23:58:45.473Z,71.80
